首页
METAR-TAF:

METAR-TAF

机场 :

奧西耶克, 克罗地亚

纬度: 45-27N, 经度: 018-48E, 海拔: 88米

当前天气观测

该预报发布于12分钟前的08:00 UTC
风速10节,风向西北
温度 6°C
湿度 93%
气压 1014 hPa
能見度: 6000
多云层高于300英尺
阴天层高于2700英尺
小雨

METAR: LDOS 100800Z 32010KT 6000 -RA BKN003 OVC027 06/05 Q1014

时间: 09:12 (08:12 UTC)

预报

该预报发布于2小时和47分钟前的05:25 UTC
预报有效从10日的 06点(UTC)到 11日的 06点(UTC)
风速12节,风向北转西北
能见度10公里或以上
阴天层高于4000英尺
短暂存在
从 10日的 06点(UTC)到 10日的 22点(UTC)
能見度: 4000
多云层高于1000英尺
阴天层高于3000英尺
成为
从 11日的 04点(UTC)到 11日的 06点(UTC)
风速6节,风向西转西北

TAF: LDOS 100525Z 1006/1106 33012KT 9999 OVC040 TX08/1012Z TNM01/1105Z TEMPO 1006/1022 4000 RA BKN010 OVC030 BECMG 1104/1106 29006KT

超过4000个机场的气象观测和天气预报(METAR&TAF报告)。

可查询的气象台以黄色和红色小点在地图上表示。

将鼠标移到小点上方,可查看气象台名称。

然后点击查看天气观测和预报。

如需切换地图:点击带黑十字的绿色按钮放大地图;点击带横线的绿色按钮缩小地图;或者点击绿色箭头查看邻近地区的地图。


METAR-TAF: